Time;durP1;ratioP1;P1;durP2;ratioP2;P2;SDS_P1;SDS_P2;PMS_P1;PMS_P2;Temp;Humidity;BMP_temperature;BMP_pressure;BME280_temperature;BME280_humidity;BME280_pressure;Samples;Min_cycle;Max_cycle;Signal;HPM_P1;HPM_P2
2022/01/24 00:01:12;;;;;;;31.95;17.67;;;5.40;99.90;;;;;;5056678;28;20080;-74
2022/01/24 00:03:37;;;;;;;28.88;17.55;;;5.40;99.90;;;;;;5058525;28;20086;-75
2022/01/24 00:06:04;;;;;;;27.42;16.27;;;5.40;99.90;;;;;;5059026;28;20084;-75
2022/01/24 00:08:31;;;;;;;30.20;17.92;;;5.30;99.90;;;;;;5055635;28;20106;-74
2022/01/24 00:11:03;;;;;;;28.35;16.63;;;5.40;99.90;;;;;;5055684;28;20521;-74
2022/01/24 00:14:47;;;;;;;27.33;17.30;;;5.40;99.90;;;;;;5055532;28;20118;-74
2022/01/24 00:16:23;;;;;;;25.70;17.50;;;5.30;99.90;;;;;;5051342;28;20048;-73
2022/01/24 00:26:52;;;;;;;27.60;16.92;;;5.30;99.90;;;;;;5055283;28;20064;-74
2022/01/24 00:29:20;;;;;;;29.23;17.80;;;5.30;99.90;;;;;;5039103;28;20044;-73
2022/01/24 00:31:46;;;;;;;27.80;17.42;;;5.30;99.90;;;;;;5038857;28;20064;-74
2022/01/24 00:34:13;;;;;;;30.95;17.60;;;5.30;99.90;;;;;;5038317;28;20459;-74
2022/01/24 00:36:39;;;;;;;29.42;17.98;;;5.30;99.90;;;;;;5054869;28;20048;-72
2022/01/24 00:39:06;;;;;;;26.92;17.02;;;5.30;99.90;;;;;;5038675;28;20088;-75
2022/01/24 00:41:42;;;;;;;25.90;16.25;;;5.30;99.90;;;;;;5055505;28;20075;-73
2022/01/24 00:47:02;;;;;;;26.60;15.63;;;5.30;99.90;;;;;;5074966;28;20048;-73
2022/01/24 00:54:56;;;;;;;23.63;14.52;;;5.30;99.90;;;;;;5074768;28;20133;-75
2022/01/24 00:57:22;;;;;;;21.05;13.38;;;5.30;99.90;;;;;;5074725;28;20091;-74
2022/01/24 00:59:49;;;;;;;21.02;13.30;;;5.30;99.90;;;;;;5074005;28;20075;-73
2022/01/24 01:02:16;;;;;;;22.27;13.93;;;5.30;99.90;;;;;;5074027;28;20052;-74
2022/01/24 01:07:27;;;;;;;19.40;13.18;;;5.30;99.90;;;;;;5054569;28;20048;-74
2022/01/24 01:18:26;;;;;;;20.05;13.23;;;5.20;99.90;;;;;;5074203;28;20498;-75
2022/01/24 01:21:14;;;;;;;20.63;13.18;;;5.20;99.90;;;;;;5073957;28;20040;-74
2022/01/24 01:23:43;;;;;;;21.60;13.02;;;5.20;99.90;;;;;;5073193;28;20048;-75
2022/01/24 01:26:22;;;;;;;20.42;13.35;;;5.20;99.90;;;;;;5074405;28;20139;-73
2022/01/24 01:28:51;;;;;;;19.05;12.38;;;5.20;99.90;;;;;;5074146;28;20131;-73
2022/01/24 01:31:47;;;;;;;20.00;12.75;;;5.20;99.90;;;;;;5074178;28;20044;-74
2022/01/24 01:34:19;;;;;;;19.90;12.77;;;5.20;99.90;;;;;;5073487;28;20131;-74
2022/01/24 01:53:31;;;;;;;20.63;13.57;;;5.20;99.90;;;;;;5053629;28;20140;-73
2022/01/24 01:55:57;;;;;;;22.05;13.45;;;5.20;99.90;;;;;;5036881;28;20033;-74
2022/01/24 01:58:24;;;;;;;20.25;12.88;;;5.20;99.90;;;;;;5053712;28;20056;-73
2022/01/24 02:00:55;;;;;;;20.77;12.85;;;5.20;99.90;;;;;;5053490;28;20087;-75
2022/01/24 02:03:22;;;;;;;19.95;12.48;;;5.10;99.90;;;;;;5052814;28;20045;-73
2022/01/24 02:05:48;;;;;;;19.10;12.68;;;5.20;99.90;;;;;;5037011;28;20036;-75
2022/01/24 02:08:15;;;;;;;18.67;13.45;;;5.20;99.90;;;;;;5053318;28;20037;-74
2022/01/24 02:10:42;;;;;;;20.40;13.10;;;5.10;99.90;;;;;;5036383;28;20040;-74
2022/01/24 02:13:09;;;;;;;21.17;13.15;;;5.20;99.90;;;;;;5054061;28;20052;-75
2022/01/24 02:21:07;;;;;;;19.70;12.57;;;5.20;99.90;;;;;;5052957;28;20391;-74
2022/01/24 02:26:05;;;;;;;20.65;13.10;;;5.10;99.90;;;;;;5053492;28;20044;-73
2022/01/24 02:28:44;;;;;;;21.23;12.75;;;5.10;99.90;;;;;;5036584;28;20394;-75
2022/01/24 02:33:54;;;;;;;18.33;12.75;;;5.20;99.90;;;;;;5053180;28;20106;-74
2022/01/24 02:36:22;;;;;;;19.58;12.73;;;5.10;99.90;;;;;;5053536;28;20049;-72
2022/01/24 02:39:19;;;;;;;22.15;13.73;;;5.10;99.90;;;;;;5035887;28;20409;-74
2022/01/24 02:49:58;;;;;;;21.00;13.75;;;5.00;99.90;;;;;;5052350;28;20059;-74
2022/01/24 02:52:26;;;;;;;22.13;14.05;;;5.10;99.90;;;;;;5052124;28;20098;-73
2022/01/24 02:54:51;;;;;;;21.55;13.90;;;5.10;99.90;;;;;;5052512;28;20430;-75
2022/01/24 02:57:19;;;;;;;23.98;14.35;;;5.10;99.90;;;;;;5052511;28;20468;-73
2022/01/24 02:59:44;;;;;;;22.92;14.15;;;5.10;99.90;;;;;;5052860;28;20033;-74
2022/01/24 03:02:10;;;;;;;21.20;13.30;;;5.10;99.90;;;;;;5052417;28;20099;-73
2022/01/24 03:04:36;;;;;;;18.90;12.77;;;5.10;99.90;;;;;;5039332;28;20048;-73
2022/01/24 03:07:01;;;;;;;22.50;13.73;;;5.10;99.90;;;;;;5072157;28;20106;-75
2022/01/24 03:09:27;;;;;;;21.00;14.15;;;5.10;99.90;;;;;;5055539;28;20445;-74
2022/01/24 03:12:01;;;;;;;22.90;13.90;;;5.10;99.90;;;;;;5055853;28;20044;-73
2022/01/24 03:14:30;;;;;;;24.05;13.80;;;5.10;99.90;;;;;;5072344;28;20478;-75
2022/01/24 03:16:57;;;;;;;22.98;13.95;;;5.10;99.90;;;;;;5072335;28;20054;-73
2022/01/24 03:19:23;;;;;;;23.50;14.27;;;5.10;99.90;;;;;;5055340;28;20555;-75
2022/01/24 03:21:48;;;;;;;22.55;14.95;;;5.10;99.90;;;;;;5072123;28;20080;-75
2022/01/24 03:24:14;;;;;;;23.50;15.18;;;5.10;99.90;;;;;;5072377;28;20086;-73
2022/01/24 03:26:41;;;;;;;23.08;14.57;;;5.10;99.90;;;;;;5052103;28;20037;-74
2022/01/24 03:29:07;;;;;;;22.63;14.52;;;5.10;99.90;;;;;;5035611;28;20155;-72
2022/01/24 03:31:34;;;;;;;22.80;15.02;;;5.10;99.90;;;;;;5035580;28;20087;-73
2022/01/24 03:34:00;;;;;;;25.75;16.42;;;5.10;99.90;;;;;;5051942;28;20055;-76
2022/01/24 03:36:26;;;;;;;25.48;16.02;;;5.10;99.90;;;;;;5056012;28;20041;-74
2022/01/24 03:38:51;;;;;;;24.80;15.57;;;5.10;99.90;;;;;;5039757;28;20143;-74
2022/01/24 03:41:17;;;;;;;24.05;15.88;;;5.10;99.90;;;;;;5039664;28;20044;-73
2022/01/24 03:43:43;;;;;;;28.13;16.15;;;5.10;99.90;;;;;;5055766;28;20044;-74
2022/01/24 03:48:48;;;;;;;26.15;16.30;;;5.10;99.90;;;;;;5055636;28;20045;-73
2022/01/24 03:51:15;;;;;;;26.95;16.63;;;5.10;99.90;;;;;;5056000;28;20087;-73
2022/01/24 03:53:43;;;;;;;26.17;15.95;;;5.10;99.90;;;;;;5055999;28;20135;-73
2022/01/24 03:56:09;;;;;;;26.88;16.30;;;5.10;99.90;;;;;;5053964;28;20123;-73
2022/01/24 03:58:35;;;;;;;24.20;15.75;;;5.10;99.90;;;;;;5059004;28;20044;-74
2022/01/24 04:01:03;;;;;;;26.75;16.35;;;5.10;99.90;;;;;;5074647;28;20040;-75
2022/01/24 04:03:29;;;;;;;26.25;17.10;;;5.10;99.90;;;;;;5057997;28;20471;-74
2022/01/24 04:05:55;;;;;;;28.10;16.05;;;5.10;99.90;;;;;;5074816;28;20047;-74
2022/01/24 04:08:20;;;;;;;25.27;15.68;;;5.10;99.90;;;;;;5075749;28;20040;-74
2022/01/24 04:10:50;;;;;;;25.80;16.52;;;5.10;99.90;;;;;;5059059;28;20467;-74
2022/01/24 04:13:38;;;;;;;25.60;16.70;;;5.10;99.90;;;;;;5075454;28;20048;-74
2022/01/24 04:18:38;;;;;;;26.20;16.58;;;5.10;99.90;;;;;;5075580;28;20044;-74
2022/01/24 04:23:59;;;;;;;27.95;16.77;;;5.10;99.90;;;;;;5074973;28;20047;-73
2022/01/24 04:26:26;;;;;;;35.40;21.77;;;5.00;99.90;;;;;;5040363;28;20072;-73
2022/01/24 04:28:52;;;;;;;36.03;20.73;;;5.10;99.90;;;;;;5055843;28;20045;-73
2022/01/24 04:31:18;;;;;;;36.35;21.13;;;5.10;99.90;;;;;;5055027;28;20036;-74
2022/01/24 04:33:44;;;;;;;32.00;19.38;;;5.10;99.90;;;;;;5038580;28;20047;-74
2022/01/24 04:36:10;;;;;;;38.03;19.65;;;5.00;99.90;;;;;;5055294;28;20037;-75
2022/01/24 04:38:36;;;;;;;32.33;19.05;;;5.10;99.90;;;;;;5054909;28;20059;-74
2022/01/24 04:41:14;;;;;;;30.52;18.80;;;5.10;99.90;;;;;;5054590;28;20125;-74
2022/01/24 04:46:42;;;;;;;31.65;18.33;;;5.00;99.90;;;;;;5053210;28;20495;-74
2022/01/24 04:56:42;;;;;;;29.75;17.73;;;5.00;99.90;;;;;;5037320;28;20052;-75
2022/01/24 04:59:09;;;;;;;27.33;17.58;;;5.00;99.90;;;;;;5024640;28;20041;-76
2022/01/24 05:01:35;;;;;;;29.73;18.20;;;5.00;99.90;;;;;;5036564;28;20103;-73
2022/01/24 05:04:00;;;;;;;26.02;15.80;;;5.00;99.90;;;;;;5020011;28;20480;-75
2022/01/24 05:06:26;;;;;;;32.42;19.00;;;5.00;99.90;;;;;;5037261;28;20053;-74
2022/01/24 05:08:52;;;;;;;31.60;18.65;;;5.00;99.90;;;;;;5020539;28;20048;-73
2022/01/24 05:11:47;;;;;;;30.55;18.52;;;5.00;99.90;;;;;;5037090;28;20061;-73
2022/01/24 05:24:45;;;;;;;47.35;26.25;;;5.00;99.90;;;;;;5073874;28;20051;-75
2022/01/24 05:27:11;;;;;;;51.45;26.83;;;5.00;99.90;;;;;;5074176;28;20546;-73
2022/01/24 05:29:37;;;;;;;46.20;25.02;;;5.10;99.90;;;;;;5057823;28;20135;-73
2022/01/24 05:32:05;;;;;;;48.63;26.70;;;5.00;99.90;;;;;;5074466;28;20478;-74
2022/01/24 05:34:30;;;;;;;54.38;28.30;;;5.00;99.90;;;;;;5057232;28;20036;-74
2022/01/24 05:36:56;;;;;;;52.42;27.88;;;5.00;99.90;;;;;;5073772;28;20095;-73
2022/01/24 05:39:22;;;;;;;50.42;28.00;;;5.00;99.90;;;;;;5073559;28;20033;-74
2022/01/24 05:41:48;;;;;;;52.53;29.02;;;5.00;99.90;;;;;;5056444;28;20119;-75
2022/01/24 05:44:14;;;;;;;61.55;31.13;;;5.00;99.90;;;;;;5039233;28;20394;-73
2022/01/24 05:46:39;;;;;;;64.68;32.42;;;5.00;99.90;;;;;;5039388;28;20390;-75
2022/01/24 05:49:05;;;;;;;67.70;33.22;;;4.90;99.90;;;;;;5056250;28;20033;-74
2022/01/24 05:51:31;;;;;;;56.28;29.90;;;5.00;99.90;;;;;;5022535;28;20128;-74
2022/01/24 05:53:57;;;;;;;67.97;36.88;;;5.00;99.90;;;;;;5054236;28;20085;-73
2022/01/24 05:56:23;;;;;;;65.80;35.88;;;5.00;99.90;;;;;;5055995;28;20052;-74
2022/01/24 05:58:48;;;;;;;68.18;35.97;;;5.00;99.90;;;;;;5055961;28;20044;-73
2022/01/24 06:01:14;;;;;;;69.13;34.80;;;5.00;99.90;;;;;;5055602;28;20048;-74
2022/01/24 06:03:40;;;;;;;67.72;34.05;;;5.00;99.90;;;;;;5051452;28;20040;-74
2022/01/24 06:06:08;;;;;;;65.05;34.00;;;5.00;99.90;;;;;;5040733;28;20078;-73
2022/01/24 06:08:34;;;;;;;69.10;35.03;;;4.90;99.90;;;;;;5047735;28;20503;-74
2022/01/24 06:10:59;;;;;;;67.93;35.20;;;5.00;99.90;;;;;;5049758;28;20033;-74
2022/01/24 06:13:26;;;;;;;65.13;33.42;;;5.00;99.90;;;;;;5033236;28;20055;-74
2022/01/24 06:15:51;;;;;;;71.57;35.22;;;5.00;99.90;;;;;;5054678;28;20040;-74
2022/01/24 06:18:17;;;;;;;70.38;34.72;;;5.00;99.90;;;;;;5039507;28;20047;-74
2022/01/24 06:20:44;;;;;;;70.07;34.70;;;4.90;99.90;;;;;;5053120;28;20391;-73
2022/01/24 06:23:16;;;;;;;66.47;33.67;;;4.90;99.90;;;;;;5052852;28;20041;-74
2022/01/24 06:25:43;;;;;;;73.32;36.33;;;4.90;99.90;;;;;;5037125;28;20041;-73
2022/01/24 06:28:10;;;;;;;72.65;35.65;;;4.90;99.90;;;;;;5053375;28;20051;-75
2022/01/24 06:30:36;;;;;;;73.30;36.03;;;4.90;99.90;;;;;;5043785;28;20386;-73
2022/01/24 06:33:01;;;;;;;73.60;35.63;;;4.90;99.90;;;;;;5053640;28;20487;-74
2022/01/24 06:35:27;;;;;;;71.75;35.83;;;4.90;99.90;;;;;;5063780;28;20032;-74
2022/01/24 06:37:53;;;;;;;76.15;36.70;;;4.90;99.90;;;;;;5072918;28;20044;-75
2022/01/24 06:40:19;;;;;;;72.07;35.85;;;4.90;99.90;;;;;;5047017;28;20438;-74
2022/01/24 06:42:45;;;;;;;77.15;36.53;;;4.90;99.90;;;;;;5052241;28;20037;-74
2022/01/24 06:45:11;;;;;;;75.57;37.35;;;4.90;99.90;;;;;;5055948;28;20076;-74
2022/01/24 06:47:37;;;;;;;71.90;36.25;;;4.90;99.90;;;;;;5054260;28;20040;-73
2022/01/24 06:50:05;;;;;;;75.20;37.88;;;4.90;99.90;;;;;;5038500;28;20490;-74
2022/01/24 06:52:30;;;;;;;72.10;36.70;;;4.90;99.90;;;;;;5068965;28;20047;-74
2022/01/24 06:54:56;;;;;;;73.28;37.00;;;4.90;99.90;;;;;;5072702;28;20045;-74
2022/01/24 06:57:22;;;;;;;75.82;36.72;;;4.90;99.90;;;;;;5072772;28;20090;-74
2022/01/24 06:59:47;;;;;;;75.97;36.53;;;4.90;99.90;;;;;;5072832;28;20138;-74
2022/01/24 07:02:14;;;;;;;56.08;28.98;;;4.90;99.90;;;;;;5055836;28;20098;-73
2022/01/24 07:04:41;;;;;;;72.43;35.40;;;4.90;99.90;;;;;;5050227;28;20041;-74
2022/01/24 07:07:08;;;;;;;75.75;39.03;;;4.90;99.90;;;;;;5056092;28;20036;-73
2022/01/24 07:09:35;;;;;;;76.38;38.88;;;4.90;99.90;;;;;;5070359;28;20056;-73
2022/01/24 07:12:00;;;;;;;75.30;37.72;;;4.90;99.90;;;;;;5060977;28;20486;-75
2022/01/24 07:14:26;;;;;;;77.45;38.72;;;4.90;99.90;;;;;;5072449;28;20045;-75
2022/01/24 07:19:21;;;;;;;77.60;38.13;;;4.90;99.90;;;;;;5068203;28;20048;-75
2022/01/24 07:21:46;;;;;;;82.18;41.15;;;4.90;99.90;;;;;;5055728;28;20110;-74
2022/01/24 07:24:12;;;;;;;78.97;39.47;;;4.90;99.90;;;;;;5035378;28;20037;-74
2022/01/24 07:26:38;;;;;;;81.18;41.28;;;4.90;99.90;;;;;;5052095;28;20041;-75
2022/01/24 07:29:04;;;;;;;77.50;38.92;;;4.90;99.90;;;;;;5052133;28;20395;-74
2022/01/24 07:31:29;;;;;;;82.53;40.20;;;4.90;99.90;;;;;;5052127;28;20037;-74
2022/01/24 07:33:55;;;;;;;86.10;41.33;;;4.90;99.90;;;;;;5052057;28;20040;-73
2022/01/24 07:36:22;;;;;;;81.80;40.55;;;4.90;99.90;;;;;;5051656;28;20091;-74
2022/01/24 07:38:48;;;;;;;81.80;41.17;;;4.90;99.90;;;;;;5056943;28;20402;-73
2022/01/24 07:41:17;;;;;;;84.43;41.78;;;4.90;99.90;;;;;;5052967;28;20483;-74
2022/01/24 07:43:43;;;;;;;89.50;45.10;;;4.90;99.90;;;;;;5052928;28;20049;-72
2022/01/24 07:46:09;;;;;;;84.43;43.45;;;4.90;99.90;;;;;;5035550;28;20279;-73
2022/01/24 07:48:35;;;;;;;89.00;43.03;;;4.90;99.90;;;;;;5051744;28;20041;-74
2022/01/24 07:51:02;;;;;;;89.80;43.95;;;4.90;99.90;;;;;;5052223;28;20044;-74
2022/01/24 07:53:28;;;;;;;85.07;43.13;;;4.90;99.90;;;;;;5052133;28;20051;-74
2022/01/24 07:55:54;;;;;;;90.18;45.53;;;4.90;99.90;;;;;;5035383;28;20048;-74
2022/01/24 07:58:20;;;;;;;89.38;45.40;;;4.90;99.90;;;;;;5035582;28;20094;-75
2022/01/24 08:00:45;;;;;;;87.70;45.28;;;4.90;99.90;;;;;;5051690;28;20391;-74
2022/01/24 08:03:11;;;;;;;89.10;45.60;;;4.90;99.90;;;;;;5051327;28;20037;-75
2022/01/24 08:05:37;;;;;;;93.13;45.60;;;5.00;99.90;;;;;;5035603;28;20132;-73
2022/01/24 08:08:04;;;;;;;96.15;46.65;;;4.90;99.90;;;;;;5051605;28;20080;-74
2022/01/24 08:10:30;;;;;;;97.78;48.00;;;4.90;99.90;;;;;;5058071;28;20113;-74
2022/01/24 08:12:55;;;;;;;114.22;53.17;;;4.90;99.90;;;;;;5071861;28;20110;-75
2022/01/24 08:15:21;;;;;;;92.88;47.28;;;5.00;99.90;;;;;;5071794;28;20037;-72
2022/01/24 08:17:47;;;;;;;123.15;59.25;;;4.90;99.90;;;;;;5071142;28;20040;-74
2022/01/24 08:20:15;;;;;;;111.57;54.70;;;4.90;99.90;;;;;;5071320;28;20036;-73
2022/01/24 08:22:41;;;;;;;99.85;50.75;;;4.90;99.90;;;;;;5057200;28;20043;-73
2022/01/24 08:25:07;;;;;;;103.72;51.05;;;5.00;99.90;;;;;;5058605;28;20489;-74
2022/01/24 08:27:33;;;;;;;101.60;49.53;;;5.00;99.90;;;;;;5058513;28;20044;-73
2022/01/24 08:30:00;;;;;;;101.43;49.50;;;5.00;99.90;;;;;;5075243;28;20128;-74
2022/01/24 08:32:25;;;;;;;92.20;46.38;;;5.00;99.90;;;;;;5074877;28;20037;-73
2022/01/24 08:34:52;;;;;;;91.28;46.60;;;5.00;99.90;;;;;;5050915;28;20056;-73
2022/01/24 08:37:18;;;;;;;97.15;46.15;;;5.00;99.90;;;;;;5038471;28;20463;-73
2022/01/24 08:39:44;;;;;;;99.00;45.65;;;5.00;99.90;;;;;;5038188;28;20575;-75
2022/01/24 08:42:24;;;;;;;95.00;46.58;;;5.00;99.90;;;;;;5038463;28;20128;-74
2022/01/24 08:47:25;;;;;;;93.38;44.72;;;5.00;99.90;;;;;;5055664;28;20051;-74
2022/01/24 08:49:51;;;;;;;90.65;45.00;;;5.10;99.90;;;;;;5055171;28;20130;-74
2022/01/24 08:52:19;;;;;;;90.95;45.88;;;5.10;99.90;;;;;;5054759;28;20609;-75
2022/01/24 08:54:46;;;;;;;88.32;43.55;;;5.10;99.90;;;;;;5063140;28;20087;-74
2022/01/24 08:57:15;;;;;;;88.18;43.70;;;5.10;99.90;;;;;;5064435;28;20037;-73
2022/01/24 08:59:42;;;;;;;87.03;42.43;;;5.10;99.90;;;;;;5057114;28;20036;-73
2022/01/24 09:02:08;;;;;;;81.07;41.33;;;5.10;99.90;;;;;;5074560;28;20051;-75
2022/01/24 09:04:34;;;;;;;82.85;41.00;;;5.10;99.90;;;;;;5057970;28;20052;-73
2022/01/24 09:07:04;;;;;;;83.45;41.60;;;5.10;99.90;;;;;;5074588;28;20048;-74
2022/01/24 09:09:31;;;;;;;;;;;5.10;99.90;;;;;;5058213;28;20141;-73
2022/01/24 09:11:57;;;;;;;73.80;39.38;;;5.10;99.90;;;;;;5057681;28;20047;-74
2022/01/24 09:14:23;;;;;;;80.28;40.92;;;5.10;99.90;;;;;;5074252;28;20119;-74
2022/01/24 09:16:49;;;;;;;76.22;40.38;;;5.10;99.90;;;;;;5074683;28;20040;-74
2022/01/24 09:19:14;;;;;;;76.85;40.50;;;5.10;99.90;;;;;;5074355;28;20067;-74
2022/01/24 09:21:40;;;;;;;74.03;39.60;;;5.20;99.90;;;;;;5073997;28;20044;-75
2022/01/24 09:24:06;;;;;;;71.13;38.70;;;5.20;99.90;;;;;;5057048;28;20038;-73
2022/01/24 09:26:32;;;;;;;74.90;40.13;;;5.10;99.90;;;;;;5056704;28;20475;-73
2022/01/24 09:28:58;;;;;;;72.28;40.00;;;5.20;99.90;;;;;;5073471;28;20059;-74
2022/01/24 09:31:24;;;;;;;69.88;39.55;;;5.20;99.90;;;;;;5057318;28;20390;-75
2022/01/24 09:33:51;;;;;;;72.55;39.88;;;5.20;99.90;;;;;;5074160;28;20405;-73
2022/01/24 09:36:17;;;;;;;72.22;40.08;;;5.20;99.90;;;;;;5057380;28;20048;-73
2022/01/24 09:38:42;;;;;;;67.65;38.33;;;5.20;99.90;;;;;;5051355;28;20040;-73
2022/01/24 09:41:11;;;;;;;69.28;39.00;;;5.20;99.90;;;;;;5053743;28;20068;-73
2022/01/24 09:43:36;;;;;;;68.85;38.20;;;5.20;99.90;;;;;;5036973;28;20041;-74
2022/01/24 09:46:02;;;;;;;69.45;38.88;;;5.20;99.90;;;;;;5037455;28;20434;-74
2022/01/24 09:48:29;;;;;;;67.20;38.00;;;5.20;99.90;;;;;;5054221;28;20045;-73
2022/01/24 09:50:55;;;;;;;67.55;38.15;;;5.20;99.90;;;;;;5037372;28;20044;-73
2022/01/24 09:53:23;;;;;;;68.72;38.20;;;5.20;99.90;;;;;;5037144;28;20086;-74
2022/01/24 09:55:49;;;;;;;69.70;39.33;;;5.30;99.90;;;;;;5053239;28;20418;-74
2022/01/24 09:58:16;;;;;;;72.10;40.78;;;5.30;99.90;;;;;;5069824;28;20044;-74
2022/01/24 10:00:41;;;;;;;73.97;41.35;;;5.20;99.90;;;;;;5073053;28;20052;-73
2022/01/24 10:03:09;;;;;;;67.45;40.38;;;5.20;99.90;;;;;;5056795;28;20045;-73
2022/01/24 10:05:37;;;;;;;68.55;39.90;;;5.20;99.90;;;;;;5073375;28;20436;-75
2022/01/24 10:08:16;;;;;;;73.03;42.50;;;5.30;99.90;;;;;;5073258;28;20083;-75
2022/01/24 10:10:49;;;;;;;73.83;42.27;;;5.20;99.90;;;;;;5056529;28;20041;-74
2022/01/24 10:16:31;;;;;;;70.90;40.22;;;5.30;99.90;;;;;;5068158;28;20043;-73
2022/01/24 10:19:14;;;;;;;;;;;5.30;99.90;;;;;;5039368;28;20046;-73
2022/01/24 10:21:48;;;;;;;74.28;38.65;;;5.30;99.90;;;;;;5053068;28;19923;-72
2022/01/24 10:24:32;;;;;;;68.30;38.97;;;5.30;99.90;;;;;;5053566;28;20037;-73
2022/01/24 10:27:29;;;;;;;66.47;39.45;;;5.30;99.90;;;;;;5052967;28;20384;-73
2022/01/24 10:29:57;;;;;;;68.25;40.03;;;5.20;99.90;;;;;;5035595;28;20368;-72
2022/01/24 10:32:38;;;;;;;63.42;37.22;;;5.30;99.90;;;;;;5064296;28;20036;-72
2022/01/24 10:35:38;;;;;;;66.20;38.33;;;5.20;99.90;;;;;;5072788;28;20474;-75
2022/01/24 10:38:21;;;;;;;66.70;38.42;;;5.30;99.90;;;;;;5056270;28;20565;-73
2022/01/24 10:40:55;;;;;;;68.53;39.60;;;5.30;99.90;;;;;;5056308;28;20055;-73
2022/01/24 10:43:28;;;;;;;65.53;38.33;;;5.30;99.90;;;;;;5056137;28;20035;-73
2022/01/24 10:45:56;;;;;;;66.70;38.50;;;5.30;99.90;;;;;;5069096;28;20043;-72
2022/01/24 10:48:27;;;;;;;63.20;38.10;;;5.30;99.90;;;;;;5035667;28;20127;-74
2022/01/24 10:51:15;;;;;;;68.93;37.45;;;5.30;99.90;;;;;;5052737;28;20045;-73
2022/01/24 10:53:51;;;;;;;66.32;38.92;;;5.30;99.90;;;;;;5036251;28;20045;-72
2022/01/24 10:56:45;;;;;;;69.30;39.03;;;5.30;99.90;;;;;;5052265;28;20406;-73
2022/01/24 10:59:22;;;;;;;63.60;37.58;;;5.30;99.90;;;;;;5052053;28;20049;-73
2022/01/24 11:01:57;;;;;;;63.72;37.05;;;5.30;99.90;;;;;;5053685;28;20053;-73
2022/01/24 11:04:26;;;;;;;59.60;35.97;;;5.30;99.90;;;;;;5052238;28;20048;-73
2022/01/24 11:06:58;;;;;;;64.80;38.83;;;5.30;99.90;;;;;;5051884;28;20510;-73
2022/01/24 11:09:32;;;;;;;68.55;39.58;;;5.30;99.90;;;;;;5036390;28;20055;-73
2022/01/24 11:12:13;;;;;;;68.97;38.13;;;5.30;99.90;;;;;;5036201;28;20080;-74
2022/01/24 11:14:41;;;;;;;65.03;37.45;;;5.30;99.90;;;;;;5035852;28;20057;-75
2022/01/24 11:17:10;;;;;;;62.45;36.55;;;5.30;99.90;;;;;;5063558;28;20039;-73
2022/01/24 11:19:49;;;;;;;60.72;34.97;;;5.30;99.90;;;;;;5071641;28;20165;-74
2022/01/24 11:22:25;;;;;;;60.50;35.63;;;5.30;99.90;;;;;;5071984;28;20049;-73
2022/01/24 11:25:04;;;;;;;55.83;33.75;;;5.30;99.90;;;;;;5055627;28;20055;-73
2022/01/24 11:27:30;;;;;;;50.38;31.48;;;5.30;99.90;;;;;;5072048;28;20051;-75
2022/01/24 11:30:00;;;;;;;55.55;33.80;;;5.30;99.90;;;;;;5050189;28;20040;-73
2022/01/24 11:32:28;;;;;;;;;;;5.30;99.90;;;;;;5042158;28;20419;-74
2022/01/24 11:34:55;;;;;;;48.65;30.98;;;5.30;99.90;;;;;;5052139;28;19916;-74
2022/01/24 11:37:45;;;;;;;51.30;32.92;;;5.30;99.90;;;;;;5052200;28;20033;-73
2022/01/24 11:40:23;;;;;;;;;;;5.30;99.90;;;;;;5052286;28;20049;-74
2022/01/24 11:42:49;;;;;;;43.70;28.92;;;5.30;99.90;;;;;;5051759;28;19923;-74
2022/01/24 11:45:18;;;;;;;45.35;30.70;;;5.20;99.90;;;;;;5052149;28;20143;-73
2022/01/24 11:47:46;;;;;;;48.75;31.70;;;5.20;99.90;;;;;;5067609;28;20032;-76
2022/01/24 11:50:24;;;;;;;42.13;28.88;;;5.30;99.90;;;;;;5071265;28;20054;-74
2022/01/24 11:52:56;;;;;;;41.75;28.52;;;5.30;99.90;;;;;;5070585;28;20055;-73
2022/01/24 11:55:36;;;;;;;41.88;28.50;;;5.30;99.90;;;;;;5071643;28;20040;-74
2022/01/24 11:58:06;;;;;;;45.15;30.65;;;5.20;99.90;;;;;;5057803;28;20044;-73
2022/01/24 12:00:42;;;;;;;49.88;31.58;;;5.20;99.90;;;;;;5073072;28;20048;-72
2022/01/24 12:03:26;;;;;;;49.78;31.52;;;5.20;99.90;;;;;;5056024;28;20092;-75
2022/01/24 12:05:57;;;;;;;51.97;32.10;;;5.20;99.90;;;;;;5074486;28;20040;-76
2022/01/24 12:08:41;;;;;;;48.10;30.05;;;5.20;99.90;;;;;;5058076;28;20379;-74
2022/01/24 12:11:12;;;;;;;44.78;29.08;;;5.30;99.90;;;;;;5056719;28;20081;-74
2022/01/24 12:13:44;;;;;;;47.13;30.30;;;5.30;99.90;;;;;;5070379;28;20036;-74
2022/01/24 12:16:12;;;;;;;43.97;28.98;;;5.30;99.90;;;;;;5057436;28;20048;-74
2022/01/24 12:18:37;;;;;;;43.33;29.80;;;5.20;99.90;;;;;;5054446;28;20056;-74
2022/01/24 12:21:05;;;;;;;42.58;28.75;;;5.20;99.90;;;;;;5054658;28;20045;-74
2022/01/24 12:23:37;;;;;;;49.40;31.35;;;5.30;99.90;;;;;;5055225;28;20043;-73
2022/01/24 12:26:07;;;;;;;52.50;32.88;;;5.30;99.90;;;;;;5038871;28;20077;-74
2022/01/24 12:28:41;;;;;;;57.35;34.78;;;5.30;99.90;;;;;;5060403;28;20045;-74
2022/01/24 12:31:10;;;;;;;54.78;33.15;;;5.30;99.90;;;;;;5060204;28;20041;-75
2022/01/24 12:33:58;;;;;;;52.35;32.97;;;5.30;99.90;;;;;;5054396;28;20140;-75
2022/01/24 12:36:48;;;;;;;48.38;30.85;;;5.20;99.90;;;;;;5037232;28;20494;-72
2022/01/24 12:39:20;;;;;;;52.10;33.38;;;5.30;99.90;;;;;;5037493;28;20047;-74
2022/01/24 12:41:50;;;;;;;46.00;30.48;;;5.30;99.90;;;;;;5053843;28;20044;-76
2022/01/24 12:47:27;;;;;;;48.20;32.42;;;5.20;99.90;;;;;;5042986;28;20541;-73
2022/01/24 12:49:54;;;;;;;44.72;31.50;;;5.20;99.90;;;;;;5054651;28;20048;-73
2022/01/24 12:52:23;;;;;;;44.72;32.33;;;5.20;99.90;;;;;;5038358;28;20055;-74
2022/01/24 12:54:54;;;;;;;46.05;32.42;;;5.10;99.90;;;;;;5037966;28;20090;-75
2022/01/24 12:57:29;;;;;;;48.92;33.40;;;5.20;99.90;;;;;;5038761;28;20067;-73
2022/01/24 13:00:08;;;;;;;49.20;33.95;;;5.20;99.90;;;;;;5054722;28;20084;-73
2022/01/24 13:02:38;;;;;;;47.17;33.08;;;5.20;99.90;;;;;;5054535;28;20056;-74
2022/01/24 13:05:15;;;;;;;47.88;35.20;;;5.10;99.90;;;;;;5037687;28;20045;-73
2022/01/24 13:07:49;;;;;;;49.42;33.92;;;5.10;99.90;;;;;;5072490;28;20040;-75
2022/01/24 13:10:19;;;;;;;45.90;33.15;;;5.10;99.90;;;;;;5074004;28;20485;-72
2022/01/24 13:13:05;;;;;;;48.78;33.80;;;5.10;99.90;;;;;;5074441;28;20127;-73
2022/01/24 13:20:31;;;;;;;46.10;33.08;;;5.10;99.90;;;;;;5057511;28;20044;-73
2022/01/24 13:21:11;;;;;;;48.28;33.50;;;5.00;99.90;;;;;;5074169;28;20386;-73
2022/01/24 13:23:42;;;;;;;44.28;31.00;;;5.00;99.90;;;;;;5073826;28;20052;-74
2022/01/24 13:26:09;;;;;;;46.22;33.33;;;5.00;99.90;;;;;;5074027;28;20131;-74
2022/01/24 13:28:34;;;;;;;43.15;31.42;;;5.00;99.90;;;;;;5074502;28;20045;-74
2022/01/24 13:31:02;;;;;;;41.80;29.80;;;5.00;99.90;;;;;;5073988;28;20044;-73
2022/01/24 13:33:33;;;;;;;42.03;30.15;;;5.00;99.90;;;;;;5057771;28;20093;-73
2022/01/24 13:36:05;;;;;;;38.70;27.25;;;5.00;99.90;;;;;;5068885;28;20088;-75
2022/01/24 13:38:34;;;;;;;66.47;37.30;;;5.10;99.90;;;;;;5053535;28;20072;-74
2022/01/24 13:41:07;;;;;;;34.57;24.57;;;5.10;99.90;;;;;;5054135;28;20041;-73
2022/01/24 13:43:40;;;;;;;102.05;54.78;;;5.00;99.90;;;;;;5037185;28;20041;-74
2022/01/24 13:46:15;;;;;;;33.42;24.33;;;5.00;99.90;;;;;;5053608;28;20044;-74
2022/01/24 13:48:45;;;;;;;32.20;23.70;;;5.00;99.90;;;;;;5054422;28;20103;-73
2022/01/24 13:51:13;;;;;;;42.70;29.33;;;5.00;99.90;;;;;;5054013;28;20036;-74
2022/01/24 13:53:54;;;;;;;32.20;24.20;;;5.00;99.90;;;;;;5053969;28;20045;-73
2022/01/24 13:56:44;;;;;;;33.50;24.08;;;5.00;99.90;;;;;;5045652;28;20043;-74
2022/01/24 13:59:12;;;;;;;;;;;5.00;99.90;;;;;;5073936;28;20475;-73
2022/01/24 14:01:55;;;;;;;41.38;27.23;;;4.90;99.90;;;;;;5073914;28;19916;-73
2022/01/24 14:04:37;;;;;;;40.65;27.77;;;5.00;99.90;;;;;;5072820;28;20124;-74
2022/01/24 14:07:31;;;;;;;41.05;28.48;;;5.00;99.90;;;;;;5073098;28;20107;-74
2022/01/24 14:09:57;;;;;;;40.42;27.90;;;5.00;99.90;;;;;;5070611;28;20475;-73
2022/01/24 14:12:40;;;;;;;38.90;27.33;;;5.00;99.90;;;;;;5073010;28;20072;-73
2022/01/24 14:15:13;;;;;;;43.72;29.55;;;5.00;99.90;;;;;;5072802;28;20393;-73
2022/01/24 14:17:52;;;;;;;43.13;29.60;;;5.00;99.90;;;;;;5073509;28;20146;-74
2022/01/24 14:20:19;;;;;;;42.50;28.67;;;5.00;99.90;;;;;;5072651;28;20119;-72
2022/01/24 14:22:51;;;;;;;40.42;27.98;;;5.00;99.90;;;;;;5072988;28;20050;-73
2022/01/24 14:25:26;;;;;;;41.47;28.70;;;5.00;99.90;;;;;;5056717;28;20036;-74
2022/01/24 14:27:56;;;;;;;40.97;27.73;;;5.00;99.90;;;;;;5052831;28;20044;-74
2022/01/24 14:30:25;;;;;;;;;;;5.00;99.90;;;;;;5053747;28;20386;-73
2022/01/24 14:33:17;;;;;;;40.97;27.35;;;4.90;99.90;;;;;;5053533;28;19923;-74
2022/01/24 14:36:14;;;;;;;42.30;28.75;;;4.90;99.90;;;;;;5052894;28;20048;-73
2022/01/24 14:38:46;;;;;;;41.35;28.33;;;4.90;99.90;;;;;;5052705;28;20541;-73